sensor_id;sensor_type;location;lat;lon;timestamp;P1;durP1;ratioP1;P2;durP2;ratioP2
19414;SDS011;9843;48.882;12.592;2023-04-29T00:00:50;42.00;;;31.40;;
19414;SDS011;9843;48.882;12.592;2023-04-29T00:03:17;44.23;;;34.60;;
19414;SDS011;9843;48.882;12.592;2023-04-29T00:05:44;41.70;;;31.30;;
19414;SDS011;9843;48.882;12.592;2023-04-29T00:08:11;49.13;;;36.67;;
19414;SDS011;9843;48.882;12.592;2023-04-29T00:10:39;43.43;;;33.40;;
19414;SDS011;9843;48.882;12.592;2023-04-29T00:13:06;41.53;;;34.03;;
19414;SDS011;9843;48.882;12.592;2023-04-29T00:15:33;40.57;;;31.40;;
19414;SDS011;9843;48.882;12.592;2023-04-29T00:18:02;39.00;;;31.23;;
19414;SDS011;9843;48.882;12.592;2023-04-29T00:20:29;48.13;;;35.10;;
19414;SDS011;9843;48.882;12.592;2023-04-29T00:22:56;44.13;;;30.97;;
19414;SDS011;9843;48.882;12.592;2023-04-29T00:25:23;45.80;;;33.77;;
19414;SDS011;9843;48.882;12.592;2023-04-29T00:27:50;56.00;;;35.10;;
19414;SDS011;9843;48.882;12.592;2023-04-29T00:30:17;40.57;;;31.33;;
19414;SDS011;9843;48.882;12.592;2023-04-29T00:32:44;47.20;;;32.57;;
19414;SDS011;9843;48.882;12.592;2023-04-29T00:35:13;49.87;;;35.10;;
19414;SDS011;9843;48.882;12.592;2023-04-29T00:37:40;51.20;;;34.50;;
19414;SDS011;9843;48.882;12.592;2023-04-29T00:40:08;48.77;;;33.93;;
19414;SDS011;9843;48.882;12.592;2023-04-29T00:42:37;46.73;;;36.80;;
19414;SDS011;9843;48.882;12.592;2023-04-29T00:45:04;44.90;;;33.37;;
19414;SDS011;9843;48.882;12.592;2023-04-29T00:47:31;47.20;;;33.97;;
19414;SDS011;9843;48.882;12.592;2023-04-29T00:49:58;44.27;;;35.57;;
19414;SDS011;9843;48.882;12.592;2023-04-29T00:52:28;44.90;;;33.07;;
19414;SDS011;9843;48.882;12.592;2023-04-29T00:54:56;42.83;;;33.97;;
19414;SDS011;9843;48.882;12.592;2023-04-29T00:57:24;49.10;;;33.67;;
19414;SDS011;9843;48.882;12.592;2023-04-29T00:59:53;36.80;;;30.30;;
19414;SDS011;9843;48.882;12.592;2023-04-29T01:02:20;40.57;;;31.27;;
19414;SDS011;9843;48.882;12.592;2023-04-29T01:04:47;40.43;;;31.30;;
19414;SDS011;9843;48.882;12.592;2023-04-29T01:07:14;47.27;;;32.57;;
19414;SDS011;9843;48.882;12.592;2023-04-29T01:09:48;51.00;;;33.07;;
19414;SDS011;9843;48.882;12.592;2023-04-29T01:12:20;39.40;;;30.27;;
19414;SDS011;9843;48.882;12.592;2023-04-29T01:14:48;35.93;;;28.40;;
19414;SDS011;9843;48.882;12.592;2023-04-29T01:17:21;35.37;;;28.70;;
19414;SDS011;9843;48.882;12.592;2023-04-29T01:19:51;36.43;;;30.20;;
19414;SDS011;9843;48.882;12.592;2023-04-29T01:22:20;41.60;;;30.47;;
19414;SDS011;9843;48.882;12.592;2023-04-29T01:24:49;37.90;;;28.23;;
19414;SDS011;9843;48.882;12.592;2023-04-29T01:27:19;51.90;;;33.50;;
19414;SDS011;9843;48.882;12.592;2023-04-29T01:29:50;41.60;;;29.13;;
19414;SDS011;9843;48.882;12.592;2023-04-29T01:32:21;34.63;;;28.87;;
19414;SDS011;9843;48.882;12.592;2023-04-29T01:34:52;31.80;;;26.93;;
19414;SDS011;9843;48.882;12.592;2023-04-29T01:37:21;43.67;;;32.27;;
19414;SDS011;9843;48.882;12.592;2023-04-29T01:39:55;38.80;;;29.77;;
19414;SDS011;9843;48.882;12.592;2023-04-29T01:42:24;40.43;;;31.27;;
19414;SDS011;9843;48.882;12.592;2023-04-29T01:44:54;47.53;;;33.00;;
19414;SDS011;9843;48.882;12.592;2023-04-29T01:47:21;38.10;;;30.73;;
19414;SDS011;9843;48.882;12.592;2023-04-29T01:49:48;42.90;;;33.77;;
19414;SDS011;9843;48.882;12.592;2023-04-29T01:52:15;38.87;;;30.23;;
19414;SDS011;9843;48.882;12.592;2023-04-29T01:54:42;38.07;;;30.03;;
19414;SDS011;9843;48.882;12.592;2023-04-29T01:57:11;40.57;;;31.00;;
19414;SDS011;9843;48.882;12.592;2023-04-29T01:59:38;40.83;;;30.07;;
19414;SDS011;9843;48.882;12.592;2023-04-29T02:02:06;45.40;;;32.10;;
19414;SDS011;9843;48.882;12.592;2023-04-29T02:04:34;40.00;;;31.23;;
19414;SDS011;9843;48.882;12.592;2023-04-29T02:07:01;47.40;;;32.97;;
19414;SDS011;9843;48.882;12.592;2023-04-29T02:09:28;43.30;;;31.80;;
19414;SDS011;9843;48.882;12.592;2023-04-29T02:11:55;40.10;;;32.50;;
19414;SDS011;9843;48.882;12.592;2023-04-29T02:14:24;45.87;;;31.13;;
19414;SDS011;9843;48.882;12.592;2023-04-29T02:16:51;40.60;;;31.90;;
19414;SDS011;9843;48.882;12.592;2023-04-29T02:19:18;41.63;;;33.03;;
19414;SDS011;9843;48.882;12.592;2023-04-29T02:21:45;36.13;;;27.73;;
19414;SDS011;9843;48.882;12.592;2023-04-29T02:24:12;40.23;;;30.90;;
19414;SDS011;9843;48.882;12.592;2023-04-29T02:26:39;40.07;;;30.07;;
19414;SDS011;9843;48.882;12.592;2023-04-29T02:29:06;37.43;;;28.53;;
19414;SDS011;9843;48.882;12.592;2023-04-29T02:31:35;42.33;;;31.97;;
19414;SDS011;9843;48.882;12.592;2023-04-29T02:34:02;44.37;;;31.10;;
19414;SDS011;9843;48.882;12.592;2023-04-29T02:36:29;44.50;;;30.27;;
19414;SDS011;9843;48.882;12.592;2023-04-29T02:38:56;45.07;;;31.60;;
19414;SDS011;9843;48.882;12.592;2023-04-29T02:41:24;40.67;;;31.17;;
19414;SDS011;9843;48.882;12.592;2023-04-29T02:43:51;40.27;;;30.57;;
19414;SDS011;9843;48.882;12.592;2023-04-29T02:46:18;37.87;;;30.63;;
19414;SDS011;9843;48.882;12.592;2023-04-29T02:48:47;47.67;;;33.80;;
19414;SDS011;9843;48.882;12.592;2023-04-29T02:51:14;43.80;;;30.40;;
19414;SDS011;9843;48.882;12.592;2023-04-29T02:53:41;41.07;;;31.00;;
19414;SDS011;9843;48.882;12.592;2023-04-29T02:56:08;46.67;;;33.33;;
19414;SDS011;9843;48.882;12.592;2023-04-29T02:58:35;39.90;;;30.47;;
19414;SDS011;9843;48.882;12.592;2023-04-29T03:01:02;34.70;;;29.33;;
19414;SDS011;9843;48.882;12.592;2023-04-29T03:03:29;43.10;;;33.27;;
19414;SDS011;9843;48.882;12.592;2023-04-29T03:05:58;42.20;;;32.80;;
19414;SDS011;9843;48.882;12.592;2023-04-29T03:08:25;50.03;;;36.03;;
19414;SDS011;9843;48.882;12.592;2023-04-29T03:10:52;46.60;;;33.17;;
19414;SDS011;9843;48.882;12.592;2023-04-29T03:13:19;51.40;;;34.97;;
19414;SDS011;9843;48.882;12.592;2023-04-29T03:15:46;47.80;;;34.30;;
19414;SDS011;9843;48.882;12.592;2023-04-29T03:18:13;51.20;;;33.90;;
19414;SDS011;9843;48.882;12.592;2023-04-29T03:20:40;45.43;;;32.00;;
19414;SDS011;9843;48.882;12.592;2023-04-29T03:23:08;42.50;;;32.13;;
19414;SDS011;9843;48.882;12.592;2023-04-29T03:25:35;52.70;;;36.27;;
19414;SDS011;9843;48.882;12.592;2023-04-29T03:28:03;48.47;;;34.10;;
19414;SDS011;9843;48.882;12.592;2023-04-29T03:30:30;50.50;;;35.73;;
19414;SDS011;9843;48.882;12.592;2023-04-29T03:32:57;49.30;;;35.40;;
19414;SDS011;9843;48.882;12.592;2023-04-29T03:35:24;52.13;;;33.80;;
19414;SDS011;9843;48.882;12.592;2023-04-29T03:37:51;52.73;;;37.20;;
19414;SDS011;9843;48.882;12.592;2023-04-29T03:40:19;49.23;;;33.50;;
19414;SDS011;9843;48.882;12.592;2023-04-29T03:42:46;48.70;;;34.40;;
19414;SDS011;9843;48.882;12.592;2023-04-29T03:45:13;49.17;;;35.57;;
19414;SDS011;9843;48.882;12.592;2023-04-29T03:47:41;54.30;;;35.33;;
19414;SDS011;9843;48.882;12.592;2023-04-29T03:50:08;42.97;;;31.77;;
19414;SDS011;9843;48.882;12.592;2023-04-29T03:52:36;54.13;;;36.87;;
19414;SDS011;9843;48.882;12.592;2023-04-29T03:55:03;52.90;;;34.57;;
19414;SDS011;9843;48.882;12.592;2023-04-29T03:57:31;46.30;;;31.33;;
19414;SDS011;9843;48.882;12.592;2023-04-29T03:59:58;45.13;;;33.93;;
19414;SDS011;9843;48.882;12.592;2023-04-29T04:02:25;43.67;;;31.63;;
19414;SDS011;9843;48.882;12.592;2023-04-29T04:04:52;46.77;;;32.43;;
19414;SDS011;9843;48.882;12.592;2023-04-29T04:07:19;45.43;;;32.33;;
19414;SDS011;9843;48.882;12.592;2023-04-29T04:09:47;46.83;;;33.53;;
19414;SDS011;9843;48.882;12.592;2023-04-29T04:12:14;39.73;;;31.50;;
19414;SDS011;9843;48.882;12.592;2023-04-29T04:14:42;43.80;;;32.17;;
19414;SDS011;9843;48.882;12.592;2023-04-29T04:17:09;36.00;;;28.63;;
19414;SDS011;9843;48.882;12.592;2023-04-29T04:19:36;39.60;;;29.77;;
19414;SDS011;9843;48.882;12.592;2023-04-29T04:22:03;33.87;;;26.80;;
19414;SDS011;9843;48.882;12.592;2023-04-29T04:24:31;42.80;;;31.53;;
19414;SDS011;9843;48.882;12.592;2023-04-29T04:26:58;39.10;;;29.53;;
19414;SDS011;9843;48.882;12.592;2023-04-29T04:29:25;37.97;;;28.57;;
19414;SDS011;9843;48.882;12.592;2023-04-29T04:31:54;40.87;;;29.17;;
19414;SDS011;9843;48.882;12.592;2023-04-29T04:34:21;39.03;;;29.87;;
19414;SDS011;9843;48.882;12.592;2023-04-29T04:36:48;33.73;;;25.60;;
19414;SDS011;9843;48.882;12.592;2023-04-29T04:39:16;33.97;;;25.37;;
19414;SDS011;9843;48.882;12.592;2023-04-29T04:41:43;33.83;;;26.80;;
19414;SDS011;9843;48.882;12.592;2023-04-29T04:44:10;33.17;;;26.63;;
19414;SDS011;9843;48.882;12.592;2023-04-29T04:46:37;30.80;;;23.77;;
19414;SDS011;9843;48.882;12.592;2023-04-29T04:49:05;30.07;;;24.80;;
19414;SDS011;9843;48.882;12.592;2023-04-29T04:51:32;30.87;;;24.50;;
19414;SDS011;9843;48.882;12.592;2023-04-29T04:53:59;39.20;;;26.67;;
19414;SDS011;9843;48.882;12.592;2023-04-29T04:56:26;30.63;;;24.63;;
19414;SDS011;9843;48.882;12.592;2023-04-29T04:58:53;27.33;;;21.83;;
19414;SDS011;9843;48.882;12.592;2023-04-29T05:01:20;28.57;;;22.97;;
19414;SDS011;9843;48.882;12.592;2023-04-29T05:03:47;30.37;;;23.67;;
19414;SDS011;9843;48.882;12.592;2023-04-29T05:06:16;28.67;;;21.60;;
19414;SDS011;9843;48.882;12.592;2023-04-29T05:08:43;26.70;;;23.70;;
19414;SDS011;9843;48.882;12.592;2023-04-29T05:11:14;27.40;;;22.17;;
19414;SDS011;9843;48.882;12.592;2023-04-29T05:13:42;30.33;;;23.13;;
19414;SDS011;9843;48.882;12.592;2023-04-29T05:16:10;27.50;;;22.77;;
19414;SDS011;9843;48.882;12.592;2023-04-29T05:18:37;25.73;;;22.07;;
19414;SDS011;9843;48.882;12.592;2023-04-29T05:21:04;27.43;;;21.50;;
19414;SDS011;9843;48.882;12.592;2023-04-29T05:23:33;37.37;;;23.17;;
19414;SDS011;9843;48.882;12.592;2023-04-29T05:26:00;38.03;;;22.23;;
19414;SDS011;9843;48.882;12.592;2023-04-29T05:28:27;33.70;;;17.17;;
19414;SDS011;9843;48.882;12.592;2023-04-29T05:30:54;39.03;;;17.67;;
19414;SDS011;9843;48.882;12.592;2023-04-29T05:33:21;30.27;;;16.00;;
19414;SDS011;9843;48.882;12.592;2023-04-29T05:35:48;55.60;;;22.20;;
19414;SDS011;9843;48.882;12.592;2023-04-29T05:38:15;32.60;;;16.83;;
19414;SDS011;9843;48.882;12.592;2023-04-29T05:40:44;42.23;;;21.23;;
19414;SDS011;9843;48.882;12.592;2023-04-29T05:43:13;44.30;;;21.53;;
19414;SDS011;9843;48.882;12.592;2023-04-29T05:45:41;44.93;;;19.10;;
19414;SDS011;9843;48.882;12.592;2023-04-29T05:48:08;39.40;;;20.93;;
19414;SDS011;9843;48.882;12.592;2023-04-29T05:50:35;32.27;;;16.27;;
19414;SDS011;9843;48.882;12.592;2023-04-29T05:53:02;32.67;;;18.47;;
19414;SDS011;9843;48.882;12.592;2023-04-29T05:55:29;40.87;;;20.13;;
19414;SDS011;9843;48.882;12.592;2023-04-29T05:57:58;30.93;;;18.70;;
19414;SDS011;9843;48.882;12.592;2023-04-29T06:00:25;39.27;;;21.83;;
19414;SDS011;9843;48.882;12.592;2023-04-29T06:02:52;40.03;;;19.00;;
19414;SDS011;9843;48.882;12.592;2023-04-29T06:05:19;39.40;;;20.90;;
19414;SDS011;9843;48.882;12.592;2023-04-29T06:07:46;35.57;;;20.07;;
19414;SDS011;9843;48.882;12.592;2023-04-29T06:10:13;33.93;;;21.17;;
19414;SDS011;9843;48.882;12.592;2023-04-29T06:12:41;36.37;;;21.97;;
19414;SDS011;9843;48.882;12.592;2023-04-29T06:15:09;38.47;;;22.00;;
19414;SDS011;9843;48.882;12.592;2023-04-29T06:17:36;36.93;;;22.70;;
19414;SDS011;9843;48.882;12.592;2023-04-29T06:20:04;35.83;;;20.70;;
19414;SDS011;9843;48.882;12.592;2023-04-29T06:22:32;30.67;;;19.07;;
19414;SDS011;9843;48.882;12.592;2023-04-29T06:24:59;32.47;;;19.90;;
19414;SDS011;9843;48.882;12.592;2023-04-29T06:27:26;31.93;;;20.73;;
19414;SDS011;9843;48.882;12.592;2023-04-29T06:29:53;36.57;;;20.27;;
19414;SDS011;9843;48.882;12.592;2023-04-29T06:32:21;36.27;;;20.90;;
19414;SDS011;9843;48.882;12.592;2023-04-29T06:34:49;31.57;;;21.73;;
19414;SDS011;9843;48.882;12.592;2023-04-29T06:37:16;35.97;;;22.67;;
19414;SDS011;9843;48.882;12.592;2023-04-29T06:39:43;28.93;;;19.93;;
19414;SDS011;9843;48.882;12.592;2023-04-29T06:42:10;30.30;;;19.03;;
19414;SDS011;9843;48.882;12.592;2023-04-29T06:44:37;30.10;;;19.03;;
19414;SDS011;9843;48.882;12.592;2023-04-29T06:47:04;30.77;;;20.50;;
19414;SDS011;9843;48.882;12.592;2023-04-29T06:49:33;25.43;;;18.63;;
19414;SDS011;9843;48.882;12.592;2023-04-29T06:52:00;26.20;;;18.77;;
19414;SDS011;9843;48.882;12.592;2023-04-29T06:54:27;31.83;;;21.93;;
19414;SDS011;9843;48.882;12.592;2023-04-29T06:56:54;29.50;;;20.07;;
19414;SDS011;9843;48.882;12.592;2023-04-29T06:59:22;21.37;;;16.90;;
19414;SDS011;9843;48.882;12.592;2023-04-29T07:01:49;23.57;;;17.87;;
19414;SDS011;9843;48.882;12.592;2023-04-29T07:04:16;24.00;;;16.57;;
19414;SDS011;9843;48.882;12.592;2023-04-29T07:06:45;17.43;;;12.93;;
19414;SDS011;9843;48.882;12.592;2023-04-29T07:09:12;16.57;;;12.27;;
19414;SDS011;9843;48.882;12.592;2023-04-29T07:11:39;16.30;;;12.13;;
19414;SDS011;9843;48.882;12.592;2023-04-29T07:14:06;13.73;;;11.57;;
19414;SDS011;9843;48.882;12.592;2023-04-29T07:16:33;13.47;;;10.30;;
19414;SDS011;9843;48.882;12.592;2023-04-29T07:19:00;17.30;;;9.93;;
19414;SDS011;9843;48.882;12.592;2023-04-29T07:21:27;11.93;;;10.17;;
19414;SDS011;9843;48.882;12.592;2023-04-29T07:23:56;12.80;;;9.17;;
19414;SDS011;9843;48.882;12.592;2023-04-29T07:26:26;9.17;;;7.77;;
19414;SDS011;9843;48.882;12.592;2023-04-29T07:28:53;10.87;;;9.73;;
19414;SDS011;9843;48.882;12.592;2023-04-29T07:31:20;13.77;;;9.87;;
19414;SDS011;9843;48.882;12.592;2023-04-29T07:33:47;8.90;;;7.90;;
19414;SDS011;9843;48.882;12.592;2023-04-29T07:36:14;10.17;;;9.17;;
19414;SDS011;9843;48.882;12.592;2023-04-29T07:38:41;11.00;;;9.70;;
19414;SDS011;9843;48.882;12.592;2023-04-29T07:41:09;11.07;;;9.67;;
19414;SDS011;9843;48.882;12.592;2023-04-29T07:43:36;10.23;;;8.53;;
19414;SDS011;9843;48.882;12.592;2023-04-29T07:46:04;9.13;;;8.03;;
19414;SDS011;9843;48.882;12.592;2023-04-29T07:48:35;8.80;;;8.00;;
19414;SDS011;9843;48.882;12.592;2023-04-29T07:51:03;9.43;;;7.40;;
19414;SDS011;9843;48.882;12.592;2023-04-29T07:53:30;9.07;;;8.13;;
19414;SDS011;9843;48.882;12.592;2023-04-29T07:55:57;7.30;;;6.60;;
19414;SDS011;9843;48.882;12.592;2023-04-29T07:58:25;6.70;;;5.97;;
19414;SDS011;9843;48.882;12.592;2023-04-29T08:00:54;6.80;;;6.10;;
19414;SDS011;9843;48.882;12.592;2023-04-29T08:03:21;12.60;;;7.23;;
19414;SDS011;9843;48.882;12.592;2023-04-29T08:05:48;7.47;;;6.67;;
19414;SDS011;9843;48.882;12.592;2023-04-29T08:08:17;8.60;;;7.33;;
19414;SDS011;9843;48.882;12.592;2023-04-29T08:10:44;6.53;;;5.83;;
19414;SDS011;9843;48.882;12.592;2023-04-29T08:13:11;5.60;;;5.10;;
19414;SDS011;9843;48.882;12.592;2023-04-29T08:15:40;5.73;;;5.00;;
19414;SDS011;9843;48.882;12.592;2023-04-29T08:18:07;4.33;;;3.90;;
19414;SDS011;9843;48.882;12.592;2023-04-29T08:20:34;4.60;;;4.13;;
19414;SDS011;9843;48.882;12.592;2023-04-29T08:23:01;5.40;;;4.40;;
19414;SDS011;9843;48.882;12.592;2023-04-29T08:25:28;6.30;;;5.17;;
19414;SDS011;9843;48.882;12.592;2023-04-29T08:27:55;5.50;;;4.43;;
19414;SDS011;9843;48.882;12.592;2023-04-29T08:30:22;5.47;;;4.77;;
19414;SDS011;9843;48.882;12.592;2023-04-29T08:32:51;5.20;;;4.70;;
19414;SDS011;9843;48.882;12.592;2023-04-29T08:35:18;5.73;;;4.30;;
19414;SDS011;9843;48.882;12.592;2023-04-29T08:37:45;6.17;;;4.17;;
19414;SDS011;9843;48.882;12.592;2023-04-29T08:40:12;6.10;;;4.73;;
19414;SDS011;9843;48.882;12.592;2023-04-29T08:42:39;5.37;;;4.87;;
19414;SDS011;9843;48.882;12.592;2023-04-29T08:45:07;7.67;;;4.73;;
19414;SDS011;9843;48.882;12.592;2023-04-29T08:47:35;6.67;;;4.57;;
19414;SDS011;9843;48.882;12.592;2023-04-29T08:50:04;5.07;;;4.13;;
19414;SDS011;9843;48.882;12.592;2023-04-29T08:52:32;3.38;;;3.08;;
19414;SDS011;9843;48.882;12.592;2023-04-29T08:55:01;4.97;;;4.10;;
19414;SDS011;9843;48.882;12.592;2023-04-29T08:57:29;6.85;;;4.03;;
19414;SDS011;9843;48.882;12.592;2023-04-29T08:59:57;8.75;;;4.82;;
19414;SDS011;9843;48.882;12.592;2023-04-29T09:02:25;7.75;;;4.60;;
19414;SDS011;9843;48.882;12.592;2023-04-29T09:04:54;6.78;;;4.28;;
19414;SDS011;9843;48.882;12.592;2023-04-29T09:07:25;5.65;;;3.83;;
19414;SDS011;9843;48.882;12.592;2023-04-29T09:09:52;3.65;;;3.13;;
19414;SDS011;9843;48.882;12.592;2023-04-29T09:12:20;9.45;;;4.47;;
19414;SDS011;9843;48.882;12.592;2023-04-29T09:14:47;4.03;;;2.90;;
19414;SDS011;9843;48.882;12.592;2023-04-29T09:17:14;4.28;;;3.45;;
19414;SDS011;9843;48.882;12.592;2023-04-29T09:19:42;4.05;;;3.15;;
19414;SDS011;9843;48.882;12.592;2023-04-29T09:22:10;2.97;;;2.45;;
19414;SDS011;9843;48.882;12.592;2023-04-29T09:24:38;4.13;;;2.42;;
19414;SDS011;9843;48.882;12.592;2023-04-29T09:27:05;3.03;;;2.65;;
19414;SDS011;9843;48.882;12.592;2023-04-29T09:29:33;3.13;;;2.83;;
19414;SDS011;9843;48.882;12.592;2023-04-29T09:32:16;3.35;;;2.50;;
19414;SDS011;9843;48.882;12.592;2023-04-29T09:34:44;2.35;;;2.00;;
19414;SDS011;9843;48.882;12.592;2023-04-29T09:37:22;3.08;;;2.78;;
19414;SDS011;9843;48.882;12.592;2023-04-29T09:39:50;2.92;;;2.25;;
19414;SDS011;9843;48.882;12.592;2023-04-29T09:42:17;4.55;;;2.85;;
19414;SDS011;9843;48.882;12.592;2023-04-29T09:44:44;3.13;;;2.80;;
19414;SDS011;9843;48.882;12.592;2023-04-29T09:47:11;4.30;;;3.03;;
19414;SDS011;9843;48.882;12.592;2023-04-29T09:49:39;4.70;;;2.80;;
19414;SDS011;9843;48.882;12.592;2023-04-29T09:52:07;6.23;;;2.70;;
19414;SDS011;9843;48.882;12.592;2023-04-29T09:54:35;5.00;;;3.33;;
19414;SDS011;9843;48.882;12.592;2023-04-29T09:57:04;4.40;;;3.40;;
19414;SDS011;9843;48.882;12.592;2023-04-29T09:59:32;4.47;;;4.00;;
19414;SDS011;9843;48.882;12.592;2023-04-29T10:02:00;4.03;;;3.07;;
19414;SDS011;9843;48.882;12.592;2023-04-29T10:04:27;3.77;;;3.47;;
19414;SDS011;9843;48.882;12.592;2023-04-29T10:06:55;4.97;;;4.43;;
19414;SDS011;9843;48.882;12.592;2023-04-29T10:09:23;4.27;;;3.87;;
19414;SDS011;9843;48.882;12.592;2023-04-29T10:11:50;5.13;;;4.33;;
19414;SDS011;9843;48.882;12.592;2023-04-29T10:14:20;4.37;;;3.97;;
19414;SDS011;9843;48.882;12.592;2023-04-29T10:16:48;4.07;;;3.70;;
19414;SDS011;9843;48.882;12.592;2023-04-29T10:19:18;4.70;;;4.30;;
19414;SDS011;9843;48.882;12.592;2023-04-29T10:21:45;5.27;;;3.80;;
19414;SDS011;9843;48.882;12.592;2023-04-29T10:24:14;4.47;;;3.67;;
19414;SDS011;9843;48.882;12.592;2023-04-29T10:26:43;5.90;;;3.43;;
19414;SDS011;9843;48.882;12.592;2023-04-29T10:29:11;4.37;;;2.43;;
19414;SDS011;9843;48.882;12.592;2023-04-29T10:31:40;5.83;;;3.40;;
19414;SDS011;9843;48.882;12.592;2023-04-29T10:34:09;2.53;;;2.33;;
19414;SDS011;9843;48.882;12.592;2023-04-29T10:36:37;2.63;;;2.43;;
19414;SDS011;9843;48.882;12.592;2023-04-29T10:39:04;4.95;;;2.67;;
19414;SDS011;9843;48.882;12.592;2023-04-29T10:41:36;5.63;;;2.92;;
19414;SDS011;9843;48.882;12.592;2023-04-29T10:44:04;4.40;;;2.13;;
19414;SDS011;9843;48.882;12.592;2023-04-29T10:46:31;4.70;;;1.88;;
19414;SDS011;9843;48.882;12.592;2023-04-29T10:49:00;5.22;;;3.38;;
19414;SDS011;9843;48.882;12.592;2023-04-29T10:51:31;1.90;;;1.70;;
19414;SDS011;9843;48.882;12.592;2023-04-29T10:54:02;3.30;;;3.00;;
19414;SDS011;9843;48.882;12.592;2023-04-29T10:56:39;6.82;;;3.10;;
19414;SDS011;9843;48.882;12.592;2023-04-29T10:59:10;6.85;;;3.67;;
19414;SDS011;9843;48.882;12.592;2023-04-29T11:01:42;4.28;;;3.30;;
19414;SDS011;9843;48.882;12.592;2023-04-29T11:04:11;5.50;;;4.28;;
19414;SDS011;9843;48.882;12.592;2023-04-29T11:06:42;4.37;;;3.30;;
19414;SDS011;9843;48.882;12.592;2023-04-29T11:09:11;4.10;;;3.47;;
19414;SDS011;9843;48.882;12.592;2023-04-29T11:11:42;3.50;;;3.20;;
19414;SDS011;9843;48.882;12.592;2023-04-29T11:14:09;4.20;;;3.80;;
19414;SDS011;9843;48.882;12.592;2023-04-29T11:16:36;6.10;;;3.57;;
19414;SDS011;9843;48.882;12.592;2023-04-29T11:19:05;4.23;;;3.80;;
19414;SDS011;9843;48.882;12.592;2023-04-29T11:21:34;3.90;;;3.60;;
19414;SDS011;9843;48.882;12.592;2023-04-29T11:24:01;4.77;;;4.13;;
19414;SDS011;9843;48.882;12.592;2023-04-29T11:26:30;4.13;;;3.73;;
19414;SDS011;9843;48.882;12.592;2023-04-29T11:28:57;5.60;;;4.47;;
19414;SDS011;9843;48.882;12.592;2023-04-29T11:31:25;3.43;;;3.13;;
19414;SDS011;9843;48.882;12.592;2023-04-29T11:33:53;3.17;;;2.50;;
19414;SDS011;9843;48.882;12.592;2023-04-29T11:36:21;4.17;;;3.23;;
19414;SDS011;9843;48.882;12.592;2023-04-29T11:38:49;6.13;;;3.20;;
19414;SDS011;9843;48.882;12.592;2023-04-29T11:41:16;3.20;;;2.90;;
19414;SDS011;9843;48.882;12.592;2023-04-29T11:43:44;5.47;;;3.60;;
19414;SDS011;9843;48.882;12.592;2023-04-29T11:46:12;5.07;;;3.33;;
19414;SDS011;9843;48.882;12.592;2023-04-29T11:48:44;3.50;;;3.20;;
19414;SDS011;9843;48.882;12.592;2023-04-29T11:51:12;6.37;;;3.90;;
19414;SDS011;9843;48.882;12.592;2023-04-29T11:53:39;5.67;;;3.40;;
19414;SDS011;9843;48.882;12.592;2023-04-29T11:56:08;3.13;;;2.93;;
19414;SDS011;9843;48.882;12.592;2023-04-29T11:58:36;3.00;;;2.80;;
19414;SDS011;9843;48.882;12.592;2023-04-29T12:01:03;3.27;;;2.60;;
19414;SDS011;9843;48.882;12.592;2023-04-29T12:03:30;2.73;;;2.53;;
19414;SDS011;9843;48.882;12.592;2023-04-29T12:05:57;2.57;;;2.33;;
19414;SDS011;9843;48.882;12.592;2023-04-29T12:08:25;3.43;;;2.23;;
19414;SDS011;9843;48.882;12.592;2023-04-29T12:10:53;6.37;;;2.63;;
19414;SDS011;9843;48.882;12.592;2023-04-29T12:13:22;3.40;;;2.30;;
19414;SDS011;9843;48.882;12.592;2023-04-29T12:15:50;2.47;;;2.27;;
19414;SDS011;9843;48.882;12.592;2023-04-29T12:18:18;2.00;;;1.63;;
19414;SDS011;9843;48.882;12.592;2023-04-29T12:20:47;1.55;;;1.30;;
19414;SDS011;9843;48.882;12.592;2023-04-29T12:23:15;1.52;;;1.40;;
19414;SDS011;9843;48.882;12.592;2023-04-29T12:25:46;2.00;;;1.67;;
19414;SDS011;9843;48.882;12.592;2023-04-29T12:28:13;1.90;;;1.75;;
19414;SDS011;9843;48.882;12.592;2023-04-29T12:30:43;2.63;;;1.45;;
19414;SDS011;9843;48.882;12.592;2023-04-29T12:33:14;4.43;;;2.03;;
19414;SDS011;9843;48.882;12.592;2023-04-29T12:35:41;4.15;;;2.08;;
19414;SDS011;9843;48.882;12.592;2023-04-29T12:38:09;2.28;;;1.70;;
19414;SDS011;9843;48.882;12.592;2023-04-29T12:40:38;1.98;;;1.70;;
19414;SDS011;9843;48.882;12.592;2023-04-29T12:43:06;1.20;;;1.10;;
19414;SDS011;9843;48.882;12.592;2023-04-29T12:45:33;1.67;;;1.57;;
19414;SDS011;9843;48.882;12.592;2023-04-29T12:48:02;2.13;;;1.37;;
19414;SDS011;9843;48.882;12.592;2023-04-29T12:50:29;2.20;;;1.87;;
19414;SDS011;9843;48.882;12.592;2023-04-29T12:52:58;4.33;;;1.60;;
19414;SDS011;9843;48.882;12.592;2023-04-29T12:55:25;1.30;;;1.10;;
19414;SDS011;9843;48.882;12.592;2023-04-29T12:57:52;2.30;;;2.13;;
19414;SDS011;9843;48.882;12.592;2023-04-29T13:00:19;2.40;;;1.70;;
19414;SDS011;9843;48.882;12.592;2023-04-29T13:02:46;1.97;;;1.77;;
19414;SDS011;9843;48.882;12.592;2023-04-29T13:05:14;2.83;;;2.30;;
19414;SDS011;9843;48.882;12.592;2023-04-29T13:07:41;2.17;;;1.73;;
19414;SDS011;9843;48.882;12.592;2023-04-29T13:10:09;2.97;;;2.00;;
19414;SDS011;9843;48.882;12.592;2023-04-29T13:12:37;2.27;;;2.07;;
19414;SDS011;9843;48.882;12.592;2023-04-29T13:15:05;4.10;;;1.77;;
19414;SDS011;9843;48.882;12.592;2023-04-29T13:17:33;1.80;;;1.63;;
19414;SDS011;9843;48.882;12.592;2023-04-29T13:20:01;2.33;;;1.73;;
19414;SDS011;9843;48.882;12.592;2023-04-29T13:22:29;1.97;;;1.87;;
19414;SDS011;9843;48.882;12.592;2023-04-29T13:24:56;1.60;;;1.50;;
19414;SDS011;9843;48.882;12.592;2023-04-29T13:27:23;2.80;;;1.50;;
19414;SDS011;9843;48.882;12.592;2023-04-29T13:29:50;3.57;;;1.87;;
19414;SDS011;9843;48.882;12.592;2023-04-29T13:32:17;1.63;;;1.50;;
19414;SDS011;9843;48.882;12.592;2023-04-29T13:34:47;2.53;;;1.40;;
19414;SDS011;9843;48.882;12.592;2023-04-29T13:37:14;1.77;;;1.67;;
19414;SDS011;9843;48.882;12.592;2023-04-29T13:39:43;1.90;;;1.80;;
19414;SDS011;9843;48.882;12.592;2023-04-29T13:42:10;3.93;;;1.93;;
19414;SDS011;9843;48.882;12.592;2023-04-29T13:44:37;2.10;;;1.50;;
19414;SDS011;9843;48.882;12.592;2023-04-29T13:47:08;1.70;;;1.60;;
19414;SDS011;9843;48.882;12.592;2023-04-29T13:49:35;2.20;;;1.50;;
19414;SDS011;9843;48.882;12.592;2023-04-29T13:52:02;2.53;;;2.23;;
19414;SDS011;9843;48.882;12.592;2023-04-29T13:54:29;3.20;;;1.90;;
19414;SDS011;9843;48.882;12.592;2023-04-29T13:56:58;1.57;;;1.47;;
19414;SDS011;9843;48.882;12.592;2023-04-29T13:59:25;2.00;;;1.50;;
19414;SDS011;9843;48.882;12.592;2023-04-29T14:01:52;1.80;;;1.70;;
19414;SDS011;9843;48.882;12.592;2023-04-29T14:04:19;1.73;;;1.63;;
19414;SDS011;9843;48.882;12.592;2023-04-29T14:06:47;1.77;;;1.50;;
19414;SDS011;9843;48.882;12.592;2023-04-29T14:09:14;1.30;;;1.20;;
19414;SDS011;9843;48.882;12.592;2023-04-29T14:11:42;1.57;;;1.47;;
19414;SDS011;9843;48.882;12.592;2023-04-29T14:14:11;2.37;;;2.07;;
19414;SDS011;9843;48.882;12.592;2023-04-29T14:16:38;3.73;;;2.70;;
19414;SDS011;9843;48.882;12.592;2023-04-29T14:19:05;2.10;;;1.90;;
19414;SDS011;9843;48.882;12.592;2023-04-29T14:21:32;1.50;;;1.40;;
19414;SDS011;9843;48.882;12.592;2023-04-29T14:23:59;1.23;;;1.13;;
19414;SDS011;9843;48.882;12.592;2023-04-29T14:26:27;2.40;;;1.40;;
19414;SDS011;9843;48.882;12.592;2023-04-29T14:28:55;2.93;;;1.90;;
19414;SDS011;9843;48.882;12.592;2023-04-29T14:31:23;2.43;;;1.83;;
19414;SDS011;9843;48.882;12.592;2023-04-29T14:33:51;2.93;;;2.53;;
19414;SDS011;9843;48.882;12.592;2023-04-29T14:36:18;4.70;;;2.13;;